This is the latest recevied weather packets stored in our database for station/object W0BJ. If no packets are shown the sender has not sent any weather packets the latest 1 day(s).
| Time | Temp. | Humidity | Pressure | Rain* | Wind** | Luminosity | Snow |
|---|---|---|---|---|---|---|---|
| 1778081722 | 13.33° C | 76% | 1019.1 hPa | 0 mm | - | - | - |
| 1778081121 | 12.78° C | 77% | 1018.8 hPa | 0 mm | - | - | - |
| 1778081001 | 12.78° C | 78% | 1018.7 hPa | 0 mm | - | - | - |
| 1778080100 | 12.22° C | 78% | 1018.5 hPa | 0 mm | - | - | - |
| 1778079922 | 12.78° C | 79% | 1018.4 hPa | 0 mm | - | - | - |
| 1778078301 | 11.67° C | 82% | 1018 hPa | 1.27 mm | - | - | - |
| 1778078121 | 11.67° C | 85% | 1018.1 hPa | 1.27 mm | - | - | - |
| 1778076501 | 10.56° C | 89% | 1018.3 hPa | 1.27 mm | - | - | - |
| 1778076321 | 10.56° C | 89% | 1018.4 hPa | 1.27 mm | - | - | - |
| 1778074866 | 10° C | 91% | 1018.4 hPa | 0 mm | - | - | - |
| 1778073666 | 9.44° C | 93% | 1018.3 hPa | 0 mm | - | - | - |
| 1778072897 | 9.44° C | 93% | 1018.4 hPa | 0 mm | - | - | - |
| 1778072465 | 9.44° C | 93% | 1018.4 hPa | 0 mm | - | - | - |
| 1778071999 | 9.44° C | 93% | 1018.1 hPa | 0 mm | - | - | - |
| 1778071098 | 9.44° C | 94% | 1017.8 hPa | 0 mm | - | - | - |
| 1778070666 | 9.44° C | 94% | 1017.9 hPa | 0 mm | - | - | - |
| 1778069465 | 8.89° C | 94% | 1017.6 hPa | 0 mm | - | - | - |
| 1778068398 | 8.89° C | 94% | 1017.5 hPa | 0 mm | - | - | - |
| 1778068266 | 8.89° C | 95% | 1017.6 hPa | 0 mm | - | - | - |
| 1778067666 | 8.89° C | 94% | 1017.5 hPa | 0 mm | - | - | - |
| 1778066465 | 8.89° C | 94% | 1017.2 hPa | 0.25 mm | - | - | - |
| 1778065266 | 8.89° C | 94% | 1016.3 hPa | 0.25 mm | - | - | - |
| 1778064798 | 8.89° C | 94% | 1016.3 hPa | 0.25 mm | - | - | - |
| 1778063897 | 8.89° C | 94% | 1015.8 hPa | 0.25 mm | - | - | - |
| 1778063465 | 8.89° C | 94% | 1015.2 hPa | 0.76 mm | - | - | - |
* Rain latest hour (hover to see other rain measurements)
** Current wind speed in m/s (hover to see current wind gust speed)